Terminal Aerodrome Forecast
Issued by NWS Louisville, KY

Home | Current Version | Previous Version | Text Only | Print | Product List | Glossary On
Versions: 1 2 3 4 5 6 7 8 9 10 11 12 13 14 15 16 17 18 19 20 21 22 23
000
FTUS43 KLMK 152200 AAA
TAFLEX
TAF AMD
KLEX 152213Z 1522/1618 VRB05KT P6SM BKN060
     FM152300 VRB04KT P6SM -SHRA OVC060
     FM160100 26004KT P6SM VCSH BKN040
     FM161000 33004KT P6SM BKN025
     FM161100 33007KT P6SM BKN015
     FM161600 02006KT P6SM BKN025=

USA.gov is the U.S. government's official web portal to all federal, state and local government web resources and services.